createdAt,value
2019-01-22T00:00:29.746Z,25.60
2019-01-22T00:02:58.619Z,24.70
2019-01-22T00:05:27.525Z,26.40
2019-01-22T00:07:56.507Z,24.33
2019-01-22T00:10:25.588Z,27.27
2019-01-22T00:12:54.647Z,26.33
2019-01-22T00:15:23.943Z,27.73
2019-01-22T00:17:52.861Z,26.67
2019-01-22T00:20:21.923Z,27.50
2019-01-22T00:22:51.082Z,24.27
2019-01-22T00:25:19.984Z,28.50
2019-01-22T00:27:48.899Z,26.80
2019-01-22T00:30:18.475Z,28.60
2019-01-22T00:32:47.369Z,26.20
2019-01-22T00:35:16.291Z,27.27
2019-01-22T00:37:45.360Z,27.33
2019-01-22T00:40:16.538Z,27.63
2019-01-22T00:42:45.927Z,27.20
2019-01-22T00:45:15.434Z,27.90
2019-01-22T00:47:44.360Z,30.30
2019-01-22T00:50:15.458Z,28.60
2019-01-22T00:52:44.529Z,27.27
2019-01-22T00:55:15.286Z,29.00
2019-01-22T00:57:44.278Z,28.77
2019-01-22T01:00:17.952Z,28.53
2019-01-22T01:02:46.859Z,28.90
2019-01-22T01:05:15.967Z,28.37
2019-01-22T01:07:45.203Z,28.07
2019-01-22T01:10:14.853Z,27.17
2019-01-22T01:12:43.824Z,28.07
2019-01-22T01:15:13.465Z,27.60
2019-01-22T01:17:42.543Z,28.60
2019-01-22T01:20:13.523Z,28.53
2019-01-22T01:22:42.363Z,29.33
2019-01-22T01:25:13.483Z,28.43
2019-01-22T01:27:42.437Z,28.80
2019-01-22T01:30:14.295Z,27.50
2019-01-22T01:32:43.487Z,31.43
2019-01-22T01:35:13.026Z,30.40
2019-01-22T01:37:42.035Z,28.37
2019-01-22T01:40:13.548Z,29.43
2019-01-22T01:42:42.647Z,30.40
2019-01-22T01:45:11.934Z,29.47
2019-01-22T01:47:41.444Z,28.50
2019-01-22T01:50:12.862Z,29.30
2019-01-22T01:52:41.863Z,30.30
2019-01-22T01:55:11.826Z,31.97
2019-01-22T01:57:40.750Z,31.47
2019-01-22T02:00:12.993Z,30.30
2019-01-22T02:02:42.030Z,29.07
2019-01-22T02:05:11.206Z,28.67
2019-01-22T02:07:40.400Z,29.73
2019-01-22T02:10:11.685Z,28.27
2019-01-22T02:12:50.664Z,29.70
2019-01-22T02:15:33.695Z,28.50
2019-01-22T02:18:33.156Z,28.73
2019-01-22T02:21:15.819Z,28.67
2019-01-22T02:24:04.775Z,29.33
2019-01-22T02:27:04.239Z,28.70
2019-01-22T02:29:57.215Z,27.50
2019-01-22T02:33:00.281Z,27.67
2019-01-22T02:36:06.643Z,29.03
2019-01-22T02:39:11.775Z,28.17
2019-01-22T02:41:50.361Z,27.97
2019-01-22T02:44:55.291Z,30.13
2019-01-22T02:47:41.878Z,28.47
2019-01-22T02:50:41.511Z,28.50
2019-01-22T02:53:24.333Z,28.60
2019-01-22T02:56:16.961Z,27.23
2019-01-22T02:59:24.031Z,27.70
2019-01-22T03:02:46.846Z,28.97
2019-01-22T03:05:35.671Z,28.27
2019-01-22T03:08:21.864Z,28.63
2019-01-22T03:11:59.071Z,30.13
2019-01-22T03:14:49.029Z,27.90
2019-01-22T03:17:32.160Z,27.70
2019-01-22T03:20:18.956Z,28.33
2019-01-22T03:23:20.812Z,29.20
2019-01-22T03:26:43.235Z,29.13
2019-01-22T03:30:04.225Z,28.20
2019-01-22T03:33:10.676Z,26.07
2019-01-22T03:36:10.764Z,26.47
2019-01-22T03:39:29.067Z,27.30
2019-01-22T03:42:21.809Z,26.80
2019-01-22T03:45:50.785Z,26.83
2019-01-22T03:48:55.391Z,25.10
2019-01-22T03:52:00.347Z,26.80
2019-01-22T03:55:01.907Z,24.80
2019-01-22T03:57:37.962Z,28.63
2019-01-22T04:00:24.023Z,27.20
2019-01-22T04:02:53.295Z,27.30
2019-01-22T04:05:22.219Z,27.53
2019-01-22T04:07:51.213Z,29.10
2019-01-22T04:10:40.660Z,26.60
2019-01-22T04:13:09.916Z,27.83
2019-01-22T04:15:41.235Z,26.97
2019-01-22T04:18:10.256Z,28.83
2019-01-22T04:20:42.548Z,28.17
2019-01-22T04:23:20.824Z,27.23
2019-01-22T04:26:05.256Z,26.13
2019-01-22T04:28:47.656Z,27.00
2019-01-22T04:31:23.662Z,27.10
2019-01-22T04:34:13.119Z,27.43
2019-01-22T04:37:25.209Z,27.27
2019-01-22T04:40:27.698Z,26.70
2019-01-22T04:43:05.933Z,27.40
2019-01-22T04:46:09.669Z,26.53
2019-01-22T04:49:03.605Z,24.50
2019-01-22T04:52:11.924Z,23.40
2019-01-22T04:55:06.888Z,23.93
2019-01-22T04:58:00.847Z,25.17
2019-01-22T05:01:23.201Z,24.60
2019-01-22T05:04:17.397Z,24.93
2019-01-22T05:07:06.348Z,24.43
2019-01-22T05:10:17.903Z,25.23
2019-01-22T05:13:28.207Z,23.33
2019-01-22T05:16:31.827Z,24.63
2019-01-22T05:19:26.415Z,24.37
2019-01-22T05:22:32.538Z,24.87
2019-01-22T05:25:24.323Z,23.97
2019-01-22T05:28:37.084Z,22.37
2019-01-22T05:31:38.383Z,23.53
2019-01-22T05:34:34.712Z,24.47
2019-01-22T05:37:37.508Z,25.77
2019-01-22T05:40:46.771Z,23.00
2019-01-22T05:43:50.238Z,23.20
2019-01-22T05:47:09.690Z,25.50
2019-01-22T05:50:14.686Z,23.40
2019-01-22T05:53:12.424Z,22.87
2019-01-22T05:55:43.146Z,22.83
2019-01-22T05:58:33.873Z,23.27
2019-01-22T06:01:17.523Z,23.50
2019-01-22T06:04:22.183Z,24.97
2019-01-22T06:07:08.272Z,27.47
2019-01-22T06:10:01.078Z,23.30
2019-01-22T06:13:02.786Z,23.53
2019-01-22T06:15:45.919Z,24.50
2019-01-22T06:18:51.897Z,25.43
2019-01-22T06:21:51.228Z,24.77
2019-01-22T06:24:41.726Z,25.90
2019-01-22T06:27:34.241Z,24.50
2019-01-22T06:30:38.871Z,25.80
2019-01-22T06:33:39.006Z,25.63
2019-01-22T06:36:41.192Z,24.97
2019-01-22T06:39:44.360Z,24.03
2019-01-22T06:42:33.904Z,24.50
2019-01-22T06:45:15.474Z,23.10
2019-01-22T06:48:18.083Z,26.43
2019-01-22T06:51:16.907Z,24.93
2019-01-22T06:54:17.974Z,27.10
2019-01-22T06:57:13.448Z,24.50
2019-01-22T07:00:35.442Z,26.70
2019-01-22T07:03:33.676Z,27.80
2019-01-22T07:06:32.443Z,25.33
2019-01-22T07:09:26.757Z,25.93
2019-01-22T07:12:13.142Z,26.17
2019-01-22T07:15:16.367Z,25.57
2019-01-22T07:17:59.376Z,27.87
2019-01-22T07:20:55.752Z,25.33
2019-01-22T07:23:44.565Z,26.37
2019-01-22T07:27:10.164Z,26.10
2019-01-22T07:30:10.207Z,24.30
2019-01-22T07:33:12.187Z,26.17
2019-01-22T07:36:00.585Z,25.00
2019-01-22T07:39:11.394Z,26.10
2019-01-22T07:42:06.206Z,26.80
2019-01-22T07:44:44.463Z,24.37
2019-01-22T07:47:54.555Z,25.47
2019-01-22T07:50:55.143Z,25.10
2019-01-22T07:54:06.912Z,24.20
2019-01-22T07:57:05.778Z,24.67
2019-01-22T08:00:34.494Z,25.70
2019-01-22T08:03:48.751Z,26.90
2019-01-22T08:07:11.430Z,23.87
2019-01-22T08:10:11.446Z,22.97
2019-01-22T08:12:58.840Z,23.87
2019-01-22T08:16:02.438Z,24.50
2019-01-22T08:19:12.960Z,23.80
2019-01-22T08:22:19.901Z,23.93
2019-01-22T08:25:12.694Z,24.83
2019-01-22T08:28:27.027Z,25.77
2019-01-22T08:31:30.847Z,26.30
2019-01-22T08:34:51.107Z,25.67
2019-01-22T08:38:02.531Z,24.50
2019-01-22T08:40:50.516Z,23.47
2019-01-22T08:43:36.312Z,24.07
2019-01-22T08:46:30.305Z,24.33
2019-01-22T08:49:41.428Z,25.73
2019-01-22T08:52:30.000Z,26.00
2019-01-22T08:55:38.989Z,24.87
2019-01-22T08:58:31.277Z,26.27
2019-01-22T09:01:15.375Z,24.87
2019-01-22T09:04:26.005Z,23.47
2019-01-22T09:07:12.755Z,26.40
2019-01-22T09:09:51.395Z,26.37
2019-01-22T09:12:28.890Z,26.20
2019-01-22T09:15:21.145Z,25.50
2019-01-22T09:18:12.068Z,25.23
2019-01-22T09:21:12.597Z,26.00
2019-01-22T09:24:19.262Z,27.33
2019-01-22T09:27:29.250Z,25.83
2019-01-22T09:30:08.287Z,24.37
2019-01-22T09:33:21.561Z,25.67
2019-01-22T09:36:14.840Z,29.10
2019-01-22T09:38:43.835Z,28.90
2019-01-22T09:41:12.955Z,26.37
2019-01-22T09:43:42.173Z,29.17
2019-01-22T09:46:11.216Z,29.20
2019-01-22T09:48:40.057Z,28.10
2019-01-22T09:51:09.235Z,28.80
2019-01-22T09:53:38.278Z,26.33
2019-01-22T09:56:07.263Z,27.03
2019-01-22T09:58:36.183Z,27.63
2019-01-22T10:01:05.414Z,29.30
2019-01-22T10:03:34.244Z,28.47
2019-01-22T10:06:03.243Z,28.67
2019-01-22T10:08:32.063Z,26.40
2019-01-22T10:11:01.955Z,28.17
2019-01-22T10:13:31.464Z,29.10
2019-01-22T10:16:00.342Z,30.30
2019-01-22T10:18:29.289Z,29.03
2019-01-22T10:20:58.207Z,27.50
2019-01-22T10:23:27.100Z,29.23
2019-01-22T10:25:56.034Z,30.57
2019-01-22T10:28:24.931Z,29.73
2019-01-22T10:30:53.784Z,27.30
2019-01-22T10:33:22.712Z,27.80
2019-01-22T10:35:51.835Z,29.10
2019-01-22T10:38:20.675Z,29.73
2019-01-22T10:40:49.545Z,29.53
2019-01-22T10:43:18.510Z,26.57
2019-01-22T10:45:47.447Z,28.53
2019-01-22T10:48:16.299Z,29.60
2019-01-22T10:50:45.227Z,28.73
2019-01-22T10:53:14.076Z,32.43
2019-01-22T10:55:42.995Z,30.43
2019-01-22T10:58:11.831Z,29.63
2019-01-22T11:00:40.919Z,29.10
2019-01-22T11:03:09.838Z,30.10
2019-01-22T11:05:40.912Z,28.67
2019-01-22T11:08:09.814Z,29.50
2019-01-22T11:10:38.847Z,30.00
2019-01-22T11:13:07.973Z,30.40
2019-01-22T11:15:37.371Z,30.03
2019-01-22T11:18:06.691Z,28.40
2019-01-22T11:20:35.584Z,29.50
2019-01-22T11:23:04.810Z,31.63
2019-01-22T11:25:35.962Z,32.50
2019-01-22T11:28:05.284Z,28.90
2019-01-22T11:30:34.197Z,27.33
2019-01-22T11:33:06.374Z,29.53
2019-01-22T11:35:35.278Z,26.57
2019-01-22T11:38:04.445Z,29.67
2019-01-22T11:40:39.795Z,29.40
2019-01-22T11:43:08.834Z,27.87
2019-01-22T11:45:38.108Z,27.53
2019-01-22T11:48:09.000Z,27.63
2019-01-22T11:50:37.964Z,28.40
2019-01-22T11:53:07.170Z,30.73
2019-01-22T11:55:36.056Z,27.30
2019-01-22T11:58:05.710Z,28.77
2019-01-22T12:00:49.471Z,28.83
2019-01-22T12:03:18.282Z,29.10
2019-01-22T12:05:47.711Z,30.67
2019-01-22T12:08:16.617Z,27.27
2019-01-22T12:10:45.692Z,29.70
2019-01-22T12:13:14.608Z,27.43
2019-01-22T12:15:43.621Z,28.03
2019-01-22T12:18:12.617Z,27.27
2019-01-22T12:20:42.768Z,28.70
2019-01-22T12:23:11.741Z,27.43
2019-01-22T12:25:40.583Z,28.50
2019-01-22T12:28:09.627Z,29.20
2019-01-22T12:30:38.826Z,27.53
2019-01-22T12:33:07.838Z,28.43
2019-01-22T12:35:37.074Z,27.20
2019-01-22T12:38:06.559Z,27.37
2019-01-22T12:40:35.571Z,27.03
2019-01-22T12:43:05.427Z,28.93
2019-01-22T12:45:36.472Z,29.50
2019-01-22T12:48:07.077Z,27.50
2019-01-22T12:50:36.568Z,28.73
2019-01-22T12:53:06.783Z,30.30
2019-01-22T12:55:35.722Z,29.20
2019-01-22T12:58:04.935Z,26.10
2019-01-22T13:00:34.983Z,28.43
2019-01-22T13:03:04.578Z,29.93
2019-01-22T13:05:45.233Z,29.93
2019-01-22T13:08:14.226Z,32.67
2019-01-22T13:10:43.147Z,29.30
2019-01-22T13:13:12.143Z,27.73
2019-01-22T13:15:41.014Z,31.07
2019-01-22T13:18:10.027Z,29.67
2019-01-22T13:20:39.488Z,30.93
2019-01-22T13:23:08.509Z,32.50
2019-01-22T13:25:37.726Z,31.37
2019-01-22T13:28:06.640Z,30.70
2019-01-22T13:30:35.679Z,28.73
2019-01-22T13:33:05.015Z,27.73
2019-01-22T13:35:33.911Z,29.03
2019-01-22T13:38:02.999Z,28.13
2019-01-22T13:40:31.899Z,29.57
2019-01-22T13:43:00.886Z,30.57
2019-01-22T13:45:30.511Z,31.13
2019-01-22T13:48:00.299Z,28.70
2019-01-22T13:50:29.232Z,27.63
2019-01-22T13:52:58.194Z,27.50
2019-01-22T13:55:32.113Z,27.80
2019-01-22T13:58:01.120Z,29.17
2019-01-22T14:00:30.429Z,28.20
2019-01-22T14:02:59.655Z,28.80
2019-01-22T14:05:28.841Z,28.57
2019-01-22T14:07:57.923Z,30.33
2019-01-22T14:10:26.899Z,30.80
2019-01-22T14:12:56.711Z,29.60
2019-01-22T14:15:28.103Z,27.00
2019-01-22T14:17:56.934Z,30.53
2019-01-22T14:20:25.841Z,31.37
2019-01-22T14:22:54.681Z,27.90
2019-01-22T14:25:24.082Z,29.67
2019-01-22T14:27:53.070Z,28.80
2019-01-22T14:30:25.538Z,29.50
2019-01-22T14:32:54.645Z,26.13
2019-01-22T14:35:23.640Z,29.43
2019-01-22T14:37:52.784Z,28.10
2019-01-22T14:40:21.707Z,29.13
2019-01-22T14:42:50.774Z,28.97
2019-01-22T14:45:19.943Z,30.23
2019-01-22T14:47:48.947Z,29.00
2019-01-22T14:50:25.595Z,30.80
2019-01-22T14:52:54.515Z,29.40
2019-01-22T14:55:23.601Z,29.60
2019-01-22T14:57:52.549Z,29.80
2019-01-22T15:00:26.262Z,31.90
2019-01-22T15:02:56.525Z,29.70
2019-01-22T15:05:25.530Z,30.43
2019-01-22T15:07:54.442Z,31.67
2019-01-22T15:10:23.416Z,30.37
2019-01-22T15:12:55.856Z,31.07
2019-01-22T15:15:24.861Z,30.63
2019-01-22T15:17:53.707Z,29.80
2019-01-22T15:20:24.140Z,29.90
2019-01-22T15:22:53.430Z,32.23
2019-01-22T15:25:26.015Z,31.70
2019-01-22T15:27:54.858Z,30.60
2019-01-22T15:30:32.297Z,30.17
2019-01-22T15:33:01.263Z,31.00
2019-01-22T15:35:30.255Z,29.80
2019-01-22T15:37:59.228Z,30.03
2019-01-22T15:40:29.315Z,30.13
2019-01-22T15:42:58.283Z,29.40
2019-01-22T15:45:28.325Z,30.40
2019-01-22T15:47:57.351Z,30.30
2019-01-22T15:50:26.358Z,29.47
2019-01-22T15:52:55.364Z,30.63
2019-01-22T15:55:30.392Z,30.53
2019-01-22T15:57:59.511Z,30.47
2019-01-22T16:00:28.908Z,31.60
2019-01-22T16:02:57.902Z,30.03
2019-01-22T16:05:26.863Z,30.80
2019-01-22T16:07:55.823Z,28.80
2019-01-22T16:10:24.804Z,30.40
2019-01-22T16:12:53.895Z,32.23
2019-01-22T16:15:23.164Z,30.20
2019-01-22T16:17:52.631Z,28.90
2019-01-22T16:20:23.432Z,30.57
2019-01-22T16:22:52.683Z,29.60
2019-01-22T16:25:22.617Z,32.70
2019-01-22T16:27:51.676Z,29.87
2019-01-22T16:30:22.572Z,29.37
2019-01-22T16:32:51.562Z,29.90
2019-01-22T16:35:21.973Z,32.00
2019-01-22T16:37:50.871Z,29.13
2019-01-22T16:40:19.823Z,32.57
2019-01-22T16:42:49.348Z,31.17
2019-01-22T16:45:29.938Z,29.80
2019-01-22T16:47:59.226Z,30.03
2019-01-22T16:50:29.614Z,32.23
2019-01-22T16:52:58.775Z,39.67
2019-01-22T16:55:30.171Z,33.93
2019-01-22T16:57:59.430Z,38.20
2019-01-22T17:00:30.357Z,34.87
2019-01-22T17:02:59.266Z,33.97
2019-01-22T17:05:28.667Z,35.33
2019-01-22T17:07:57.557Z,34.80
2019-01-22T17:10:26.541Z,33.27
2019-01-22T17:12:55.373Z,35.37
2019-01-22T17:15:24.459Z,33.60
2019-01-22T17:17:53.476Z,33.30
2019-01-22T17:20:27.528Z,34.03
2019-01-22T17:23:02.076Z,34.10
2019-01-22T17:25:27.930Z,32.77
2019-01-22T17:27:57.086Z,33.23
2019-01-22T17:30:26.458Z,33.87
2019-01-22T17:33:26.996Z,34.03
2019-01-22T17:35:55.826Z,33.87
2019-01-22T17:38:24.673Z,33.67
2019-01-22T17:40:53.830Z,34.40
2019-01-22T17:43:22.814Z,35.37
2019-01-22T17:45:51.726Z,32.70
2019-01-22T17:48:20.646Z,33.30
2019-01-22T17:50:49.724Z,31.47
2019-01-22T17:53:18.568Z,36.50
2019-01-22T17:55:47.408Z,34.47
2019-01-22T17:58:16.386Z,37.13
2019-01-22T18:00:45.298Z,34.10
2019-01-22T18:03:14.248Z,35.40
2019-01-22T18:05:43.167Z,31.90
2019-01-22T18:08:11.990Z,36.93
2019-01-22T18:10:40.797Z,33.47
2019-01-22T18:13:09.733Z,39.70
2019-01-22T18:15:38.556Z,34.23
2019-01-22T18:18:07.599Z,38.67
2019-01-22T18:20:36.490Z,35.33
2019-01-22T18:23:05.423Z,34.20
2019-01-22T18:25:34.639Z,34.70
2019-01-22T18:28:03.670Z,35.33
2019-01-22T18:30:32.732Z,36.00
2019-01-22T18:33:01.800Z,36.90
2019-01-22T18:35:38.183Z,33.40
2019-01-22T18:38:07.429Z,34.87
2019-01-22T18:40:36.254Z,34.70
2019-01-22T18:43:05.464Z,33.03
2019-01-22T18:45:34.299Z,33.00
2019-01-22T18:48:03.284Z,36.13
2019-01-22T18:50:32.553Z,35.83
2019-01-22T18:53:04.898Z,34.10
2019-01-22T18:55:34.014Z,33.03
2019-01-22T18:58:02.894Z,34.70
2019-01-22T19:00:31.936Z,35.07
2019-01-22T19:03:00.790Z,35.87
2019-01-22T19:05:29.920Z,32.57
2019-01-22T19:07:58.875Z,34.73
2019-01-22T19:10:28.180Z,34.33
2019-01-22T19:12:57.298Z,35.23
2019-01-22T19:15:26.279Z,33.70
2019-01-22T19:17:55.202Z,35.40
2019-01-22T19:20:24.227Z,33.70
2019-01-22T19:22:53.322Z,34.07
2019-01-22T19:25:24.379Z,33.90
2019-01-22T19:27:53.422Z,33.20
2019-01-22T19:30:24.793Z,35.90
2019-01-22T19:32:53.968Z,31.57
2019-01-22T19:35:23.026Z,32.80
2019-01-22T19:37:52.078Z,33.57
2019-01-22T19:40:21.317Z,32.27
2019-01-22T19:42:50.612Z,34.90
2019-01-22T19:45:40.294Z,34.07
2019-01-22T19:48:09.326Z,34.50
2019-01-22T19:50:38.659Z,34.20
2019-01-22T19:53:07.717Z,31.33
2019-01-22T19:55:36.660Z,33.40
2019-01-22T19:58:06.054Z,31.80
2019-01-22T20:00:37.232Z,32.93
2019-01-22T20:03:07.539Z,30.37
2019-01-22T20:05:36.890Z,34.10
2019-01-22T20:08:06.892Z,32.63
2019-01-22T20:10:35.938Z,32.83
2019-01-22T20:13:05.110Z,33.13
2019-01-22T20:15:34.168Z,30.90
2019-01-22T20:18:03.239Z,31.37
2019-01-22T20:20:32.389Z,30.83
2019-01-22T20:23:01.300Z,32.67
2019-01-22T20:25:30.158Z,32.53
2019-01-22T20:27:59.058Z,32.10
2019-01-22T20:30:30.163Z,33.13
2019-01-22T20:32:59.460Z,30.47
2019-01-22T20:35:28.583Z,32.27
2019-01-22T20:37:57.812Z,32.23
2019-01-22T20:40:26.922Z,30.70
2019-01-22T20:42:55.841Z,32.50
2019-01-22T20:45:26.301Z,31.53
2019-01-22T20:47:55.433Z,31.10
2019-01-22T20:50:24.431Z,31.57
2019-01-22T20:52:53.367Z,31.70
2019-01-22T20:55:22.666Z,33.87
2019-01-22T20:57:55.192Z,30.67
2019-01-22T21:00:23.461Z,35.10
2019-01-22T21:02:52.567Z,33.47
2019-01-22T21:05:23.808Z,34.20
2019-01-22T21:07:52.960Z,34.17
2019-01-22T21:10:24.325Z,33.40
2019-01-22T21:12:53.419Z,36.20
2019-01-22T21:15:22.824Z,33.40
2019-01-22T21:17:51.881Z,34.97
2019-01-22T21:20:20.912Z,35.53
2019-01-22T21:22:49.929Z,33.60
2019-01-22T21:25:19.145Z,34.97
2019-01-22T21:27:48.106Z,34.73
2019-01-22T21:30:20.034Z,33.10
2019-01-22T21:32:49.261Z,37.03
2019-01-22T21:35:18.359Z,34.23
2019-01-22T21:37:47.277Z,34.60
2019-01-22T21:40:17.632Z,34.97
2019-01-22T21:42:47.104Z,34.97
2019-01-22T21:45:17.515Z,35.83
2019-01-22T21:47:46.446Z,36.47
2019-01-22T21:50:16.325Z,35.30
2019-01-22T21:52:45.385Z,37.83
2019-01-22T21:55:16.802Z,40.63
2019-01-22T21:57:45.724Z,39.27
2019-01-22T22:00:17.637Z,38.87
2019-01-22T22:02:46.762Z,38.53
2019-01-22T22:05:17.248Z,41.20
2019-01-22T22:07:46.338Z,40.33
2019-01-22T22:10:17.614Z,40.30
2019-01-22T22:12:46.740Z,39.07
2019-01-22T22:15:18.358Z,40.80
2019-01-22T22:17:47.512Z,39.90
2019-01-22T22:20:17.107Z,39.97
2019-01-22T22:22:46.244Z,41.57
2019-01-22T22:25:16.973Z,40.43
2019-01-22T22:27:46.097Z,38.77
2019-01-22T22:30:26.818Z,40.47
2019-01-22T22:32:55.782Z,40.90
2019-01-22T22:35:24.968Z,37.60
2019-01-22T22:37:53.987Z,39.63
2019-01-22T22:40:23.326Z,38.57
2019-01-22T22:42:52.647Z,36.30
2019-01-22T22:45:22.269Z,37.87
2019-01-22T22:47:51.969Z,36.13
2019-01-22T22:50:23.259Z,34.87
2019-01-22T22:52:52.476Z,35.57
2019-01-22T22:55:21.855Z,35.03
2019-01-22T22:57:51.147Z,35.93
2019-01-22T23:00:46.852Z,35.87
2019-01-22T23:03:16.604Z,33.07
2019-01-22T23:05:45.754Z,31.50
2019-01-22T23:08:14.726Z,33.73
2019-01-22T23:10:43.841Z,32.73
2019-01-22T23:13:13.340Z,30.17
2019-01-22T23:15:42.489Z,30.47
2019-01-22T23:18:11.797Z,28.37
2019-01-22T23:20:40.772Z,28.90
2019-01-22T23:23:09.805Z,28.37
2019-01-22T23:25:39.024Z,29.67
2019-01-22T23:28:08.177Z,28.83
2019-01-22T23:30:37.108Z,28.27
2019-01-22T23:33:06.197Z,25.97
2019-01-22T23:35:35.199Z,26.40
2019-01-22T23:38:04.720Z,26.93
2019-01-22T23:40:33.683Z,26.40
2019-01-22T23:43:02.736Z,27.70
2019-01-22T23:45:31.734Z,26.60
2019-01-22T23:48:00.767Z,27.97
2019-01-22T23:50:29.893Z,28.00
2019-01-22T23:52:58.957Z,26.67
2019-01-22T23:55:28.013Z,28.60
2019-01-22T23:57:56.968Z,25.27
